sensor_id;sensor_type;location;lat;lon;timestamp;P1;durP1;ratioP1;P2;durP2;ratioP2
11267;SDS011;49397;47.474;9.416;2022-08-01T00:01:36;4.13;;;2.83;;
11267;SDS011;49397;47.474;9.416;2022-08-01T00:04:02;3.20;;;3.00;;
11267;SDS011;49397;47.474;9.416;2022-08-01T00:06:28;3.33;;;2.67;;
11267;SDS011;49397;47.474;9.416;2022-08-01T00:08:53;3.13;;;2.83;;
11267;SDS011;49397;47.474;9.416;2022-08-01T00:11:19;3.57;;;2.70;;
11267;SDS011;49397;47.474;9.416;2022-08-01T00:13:45;4.60;;;2.53;;
11267;SDS011;49397;47.474;9.416;2022-08-01T00:16:10;3.00;;;2.80;;
11267;SDS011;49397;47.474;9.416;2022-08-01T00:18:36;3.90;;;2.93;;
11267;SDS011;49397;47.474;9.416;2022-08-01T00:21:02;3.27;;;2.87;;
11267;SDS011;49397;47.474;9.416;2022-08-01T00:23:28;2.90;;;2.70;;
11267;SDS011;49397;47.474;9.416;2022-08-01T00:25:54;2.40;;;2.20;;
11267;SDS011;49397;47.474;9.416;2022-08-01T00:28:19;2.97;;;2.77;;
11267;SDS011;49397;47.474;9.416;2022-08-01T00:30:45;3.00;;;2.80;;
11267;SDS011;49397;47.474;9.416;2022-08-01T00:33:11;2.80;;;2.70;;
11267;SDS011;49397;47.474;9.416;2022-08-01T00:35:36;3.00;;;2.80;;
11267;SDS011;49397;47.474;9.416;2022-08-01T00:38:02;3.53;;;2.70;;
11267;SDS011;49397;47.474;9.416;2022-08-01T00:40:27;3.30;;;2.60;;
11267;SDS011;49397;47.474;9.416;2022-08-01T00:42:53;4.03;;;2.70;;
11267;SDS011;49397;47.474;9.416;2022-08-01T00:45:18;3.50;;;3.20;;
11267;SDS011;49397;47.474;9.416;2022-08-01T00:47:44;3.57;;;2.90;;
11267;SDS011;49397;47.474;9.416;2022-08-01T00:50:10;3.93;;;2.93;;
11267;SDS011;49397;47.474;9.416;2022-08-01T00:52:36;2.60;;;2.40;;
11267;SDS011;49397;47.474;9.416;2022-08-01T00:55:02;5.40;;;2.73;;
11267;SDS011;49397;47.474;9.416;2022-08-01T00:57:28;2.67;;;2.47;;
11267;SDS011;49397;47.474;9.416;2022-08-01T00:59:55;2.60;;;2.50;;
11267;SDS011;49397;47.474;9.416;2022-08-01T01:02:22;2.80;;;2.60;;
11267;SDS011;49397;47.474;9.416;2022-08-01T01:04:47;2.70;;;2.50;;
11267;SDS011;49397;47.474;9.416;2022-08-01T01:07:16;2.90;;;2.70;;
11267;SDS011;49397;47.474;9.416;2022-08-01T01:09:49;3.60;;;2.70;;
11267;SDS011;49397;47.474;9.416;2022-08-01T01:12:31;3.03;;;2.63;;
11267;SDS011;49397;47.474;9.416;2022-08-01T01:17:36;3.20;;;3.00;;
11267;SDS011;49397;47.474;9.416;2022-08-01T01:20:06;3.00;;;2.80;;
11267;SDS011;49397;47.474;9.416;2022-08-01T01:22:47;2.97;;;2.77;;
11267;SDS011;49397;47.474;9.416;2022-08-01T01:25:54;3.60;;;3.00;;
11267;SDS011;49397;47.474;9.416;2022-08-01T01:31:27;4.33;;;2.97;;
11267;SDS011;49397;47.474;9.416;2022-08-01T01:33:56;3.43;;;3.13;;
11267;SDS011;49397;47.474;9.416;2022-08-01T01:36:23;3.60;;;2.70;;
11267;SDS011;49397;47.474;9.416;2022-08-01T01:38:51;3.10;;;2.70;;
11267;SDS011;49397;47.474;9.416;2022-08-01T01:41:19;2.87;;;2.67;;
11267;SDS011;49397;47.474;9.416;2022-08-01T01:43:46;4.37;;;2.97;;
11267;SDS011;49397;47.474;9.416;2022-08-01T01:46:15;3.63;;;2.77;;
11267;SDS011;49397;47.474;9.416;2022-08-01T01:48:43;2.40;;;2.30;;
11267;SDS011;49397;47.474;9.416;2022-08-01T01:51:12;3.23;;;3.03;;
11267;SDS011;49397;47.474;9.416;2022-08-01T01:53:39;3.07;;;2.77;;
11267;SDS011;49397;47.474;9.416;2022-08-01T01:56:06;3.07;;;2.73;;
11267;SDS011;49397;47.474;9.416;2022-08-01T01:58:34;2.70;;;2.53;;
11267;SDS011;49397;47.474;9.416;2022-08-01T02:01:02;3.40;;;3.00;;
11267;SDS011;49397;47.474;9.416;2022-08-01T02:03:28;3.53;;;2.93;;
11267;SDS011;49397;47.474;9.416;2022-08-01T02:05:56;3.10;;;2.90;;
11267;SDS011;49397;47.474;9.416;2022-08-01T02:08:22;2.90;;;2.70;;
11267;SDS011;49397;47.474;9.416;2022-08-01T02:10:50;4.07;;;2.87;;
11267;SDS011;49397;47.474;9.416;2022-08-01T02:13:37;4.00;;;2.90;;
11267;SDS011;49397;47.474;9.416;2022-08-01T02:16:03;2.87;;;2.67;;
11267;SDS011;49397;47.474;9.416;2022-08-01T02:18:30;4.10;;;2.93;;
11267;SDS011;49397;47.474;9.416;2022-08-01T02:20:56;3.17;;;2.90;;
11267;SDS011;49397;47.474;9.416;2022-08-01T02:23:24;3.27;;;2.87;;
11267;SDS011;49397;47.474;9.416;2022-08-01T02:25:55;3.40;;;3.10;;
11267;SDS011;49397;47.474;9.416;2022-08-01T02:28:29;3.00;;;2.80;;
11267;SDS011;49397;47.474;9.416;2022-08-01T02:31:04;3.10;;;2.80;;
11267;SDS011;49397;47.474;9.416;2022-08-01T02:33:37;4.27;;;2.77;;
11267;SDS011;49397;47.474;9.416;2022-08-01T02:36:04;3.73;;;3.03;;
11267;SDS011;49397;47.474;9.416;2022-08-01T02:38:33;2.80;;;2.60;;
11267;SDS011;49397;47.474;9.416;2022-08-01T02:41:04;4.70;;;2.40;;
11267;SDS011;49397;47.474;9.416;2022-08-01T02:43:34;3.23;;;3.03;;
11267;SDS011;49397;47.474;9.416;2022-08-01T02:46:04;3.67;;;3.03;;
11267;SDS011;49397;47.474;9.416;2022-08-01T02:48:33;3.23;;;2.93;;
11267;SDS011;49397;47.474;9.416;2022-08-01T02:51:01;2.93;;;2.73;;
11267;SDS011;49397;47.474;9.416;2022-08-01T02:53:29;3.00;;;2.77;;
11267;SDS011;49397;47.474;9.416;2022-08-01T02:55:57;3.13;;;2.83;;
11267;SDS011;49397;47.474;9.416;2022-08-01T02:58:24;3.33;;;2.77;;
11267;SDS011;49397;47.474;9.416;2022-08-01T03:00:50;3.60;;;3.13;;
11267;SDS011;49397;47.474;9.416;2022-08-01T03:03:17;2.93;;;2.73;;
11267;SDS011;49397;47.474;9.416;2022-08-01T03:05:43;3.40;;;3.10;;
11267;SDS011;49397;47.474;9.416;2022-08-01T03:08:11;3.17;;;2.73;;
11267;SDS011;49397;47.474;9.416;2022-08-01T03:10:39;3.63;;;3.07;;
11267;SDS011;49397;47.474;9.416;2022-08-01T03:13:07;3.97;;;3.53;;
11267;SDS011;49397;47.474;9.416;2022-08-01T03:15:36;3.77;;;2.80;;
11267;SDS011;49397;47.474;9.416;2022-08-01T03:18:05;3.60;;;2.77;;
11267;SDS011;49397;47.474;9.416;2022-08-01T03:20:33;3.10;;;2.80;;
11267;SDS011;49397;47.474;9.416;2022-08-01T03:23:01;3.30;;;3.00;;
11267;SDS011;49397;47.474;9.416;2022-08-01T03:25:30;3.67;;;3.20;;
11267;SDS011;49397;47.474;9.416;2022-08-01T03:27:58;3.30;;;3.00;;
11267;SDS011;49397;47.474;9.416;2022-08-01T03:30:27;4.43;;;3.30;;
11267;SDS011;49397;47.474;9.416;2022-08-01T03:32:54;5.50;;;3.00;;
11267;SDS011;49397;47.474;9.416;2022-08-01T03:35:20;3.50;;;3.20;;
11267;SDS011;49397;47.474;9.416;2022-08-01T03:37:50;3.50;;;3.20;;
11267;SDS011;49397;47.474;9.416;2022-08-01T03:40:22;3.30;;;3.00;;
11267;SDS011;49397;47.474;9.416;2022-08-01T03:42:53;4.13;;;3.07;;
11267;SDS011;49397;47.474;9.416;2022-08-01T03:45:25;3.13;;;2.73;;
11267;SDS011;49397;47.474;9.416;2022-08-01T03:47:54;3.07;;;2.80;;
11267;SDS011;49397;47.474;9.416;2022-08-01T03:50:24;4.03;;;3.00;;
11267;SDS011;49397;47.474;9.416;2022-08-01T03:52:50;3.77;;;3.13;;
11267;SDS011;49397;47.474;9.416;2022-08-01T03:55:18;3.07;;;2.83;;
11267;SDS011;49397;47.474;9.416;2022-08-01T03:57:46;3.20;;;2.90;;
11267;SDS011;49397;47.474;9.416;2022-08-01T04:00:13;3.77;;;2.60;;
11267;SDS011;49397;47.474;9.416;2022-08-01T04:02:44;3.30;;;3.00;;
11267;SDS011;49397;47.474;9.416;2022-08-01T04:05:11;2.73;;;2.53;;
11267;SDS011;49397;47.474;9.416;2022-08-01T04:07:37;4.00;;;3.20;;
11267;SDS011;49397;47.474;9.416;2022-08-01T04:10:04;3.17;;;2.80;;
11267;SDS011;49397;47.474;9.416;2022-08-01T04:12:31;3.97;;;3.07;;
11267;SDS011;49397;47.474;9.416;2022-08-01T04:14:57;4.87;;;3.23;;
11267;SDS011;49397;47.474;9.416;2022-08-01T04:17:23;3.30;;;2.93;;
11267;SDS011;49397;47.474;9.416;2022-08-01T04:19:49;3.00;;;2.80;;
11267;SDS011;49397;47.474;9.416;2022-08-01T04:22:15;4.30;;;3.20;;
11267;SDS011;49397;47.474;9.416;2022-08-01T04:24:41;3.50;;;3.20;;
11267;SDS011;49397;47.474;9.416;2022-08-01T04:27:09;3.50;;;3.20;;
11267;SDS011;49397;47.474;9.416;2022-08-01T04:29:40;4.33;;;3.10;;
11267;SDS011;49397;47.474;9.416;2022-08-01T04:32:08;4.37;;;3.50;;
11267;SDS011;49397;47.474;9.416;2022-08-01T04:34:37;3.30;;;2.97;;
11267;SDS011;49397;47.474;9.416;2022-08-01T04:37:05;3.20;;;3.00;;
11267;SDS011;49397;47.474;9.416;2022-08-01T04:39:34;4.67;;;3.40;;
11267;SDS011;49397;47.474;9.416;2022-08-01T04:42:02;3.33;;;3.13;;
11267;SDS011;49397;47.474;9.416;2022-08-01T04:44:30;3.60;;;3.30;;
11267;SDS011;49397;47.474;9.416;2022-08-01T04:46:58;5.40;;;3.60;;
11267;SDS011;49397;47.474;9.416;2022-08-01T04:49:26;5.03;;;3.50;;
11267;SDS011;49397;47.474;9.416;2022-08-01T04:51:55;8.57;;;3.20;;
11267;SDS011;49397;47.474;9.416;2022-08-01T04:54:29;4.47;;;3.10;;
11267;SDS011;49397;47.474;9.416;2022-08-01T04:56:58;3.33;;;3.10;;
11267;SDS011;49397;47.474;9.416;2022-08-01T04:59:25;7.83;;;3.53;;
11267;SDS011;49397;47.474;9.416;2022-08-01T05:02:04;4.27;;;3.43;;
11267;SDS011;49397;47.474;9.416;2022-08-01T05:04:33;3.13;;;2.93;;
11267;SDS011;49397;47.474;9.416;2022-08-01T05:06:59;3.43;;;3.17;;
11267;SDS011;49397;47.474;9.416;2022-08-01T05:09:25;3.70;;;3.10;;
11267;SDS011;49397;47.474;9.416;2022-08-01T05:11:51;6.17;;;2.90;;
11267;SDS011;49397;47.474;9.416;2022-08-01T05:14:16;3.30;;;3.00;;
11267;SDS011;49397;47.474;9.416;2022-08-01T05:16:42;3.30;;;3.00;;
11267;SDS011;49397;47.474;9.416;2022-08-01T05:19:07;4.10;;;3.00;;
11267;SDS011;49397;47.474;9.416;2022-08-01T05:21:34;3.10;;;2.80;;
11267;SDS011;49397;47.474;9.416;2022-08-01T05:23:59;4.17;;;3.47;;
11267;SDS011;49397;47.474;9.416;2022-08-01T05:26:25;3.20;;;2.90;;
11267;SDS011;49397;47.474;9.416;2022-08-01T05:28:50;4.07;;;3.43;;
11267;SDS011;49397;47.474;9.416;2022-08-01T05:31:16;3.60;;;3.30;;
11267;SDS011;49397;47.474;9.416;2022-08-01T05:33:41;2.93;;;2.67;;
11267;SDS011;49397;47.474;9.416;2022-08-01T05:36:07;6.07;;;3.27;;
11267;SDS011;49397;47.474;9.416;2022-08-01T05:38:32;3.80;;;3.27;;
11267;SDS011;49397;47.474;9.416;2022-08-01T05:40:58;3.63;;;3.00;;
11267;SDS011;49397;47.474;9.416;2022-08-01T05:43:23;3.80;;;3.30;;
11267;SDS011;49397;47.474;9.416;2022-08-01T05:45:49;4.13;;;3.40;;
11267;SDS011;49397;47.474;9.416;2022-08-01T05:48:14;3.13;;;2.87;;
11267;SDS011;49397;47.474;9.416;2022-08-01T05:50:40;3.40;;;3.10;;
11267;SDS011;49397;47.474;9.416;2022-08-01T05:53:05;3.43;;;3.07;;
11267;SDS011;49397;47.474;9.416;2022-08-01T05:55:31;3.83;;;3.53;;
11267;SDS011;49397;47.474;9.416;2022-08-01T05:57:56;3.57;;;3.20;;
11267;SDS011;49397;47.474;9.416;2022-08-01T06:00:22;8.53;;;3.50;;
11267;SDS011;49397;47.474;9.416;2022-08-01T06:02:47;4.90;;;3.10;;
11267;SDS011;49397;47.474;9.416;2022-08-01T06:05:13;3.87;;;2.90;;
11267;SDS011;49397;47.474;9.416;2022-08-01T06:07:38;3.60;;;3.13;;
11267;SDS011;49397;47.474;9.416;2022-08-01T06:10:05;4.63;;;3.43;;
11267;SDS011;49397;47.474;9.416;2022-08-01T06:12:34;2.93;;;2.73;;
11267;SDS011;49397;47.474;9.416;2022-08-01T06:15:00;3.50;;;2.73;;
11267;SDS011;49397;47.474;9.416;2022-08-01T06:17:26;2.87;;;2.67;;
11267;SDS011;49397;47.474;9.416;2022-08-01T06:19:51;3.23;;;2.90;;
11267;SDS011;49397;47.474;9.416;2022-08-01T06:22:17;3.67;;;3.30;;
11267;SDS011;49397;47.474;9.416;2022-08-01T06:24:42;3.23;;;2.17;;
11267;SDS011;49397;47.474;9.416;2022-08-01T06:27:08;3.63;;;3.10;;
11267;SDS011;49397;47.474;9.416;2022-08-01T06:29:33;3.40;;;3.10;;
11267;SDS011;49397;47.474;9.416;2022-08-01T06:32:00;3.97;;;3.50;;
11267;SDS011;49397;47.474;9.416;2022-08-01T06:34:25;4.23;;;3.27;;
11267;SDS011;49397;47.474;9.416;2022-08-01T06:36:51;4.10;;;2.87;;
11267;SDS011;49397;47.474;9.416;2022-08-01T06:39:16;3.30;;;3.03;;
11267;SDS011;49397;47.474;9.416;2022-08-01T06:41:42;3.53;;;3.23;;
11267;SDS011;49397;47.474;9.416;2022-08-01T06:44:11;2.90;;;2.70;;
11267;SDS011;49397;47.474;9.416;2022-08-01T06:46:37;3.80;;;2.90;;
11267;SDS011;49397;47.474;9.416;2022-08-01T06:49:02;3.20;;;2.90;;
11267;SDS011;49397;47.474;9.416;2022-08-01T06:51:28;3.57;;;3.27;;
11267;SDS011;49397;47.474;9.416;2022-08-01T06:53:54;3.40;;;3.07;;
11267;SDS011;49397;47.474;9.416;2022-08-01T06:56:19;3.50;;;3.20;;
11267;SDS011;49397;47.474;9.416;2022-08-01T06:58:45;3.83;;;2.83;;
11267;SDS011;49397;47.474;9.416;2022-08-01T07:01:10;3.50;;;3.20;;
11267;SDS011;49397;47.474;9.416;2022-08-01T07:03:36;3.40;;;3.10;;
11267;SDS011;49397;47.474;9.416;2022-08-01T07:06:02;3.53;;;3.33;;
11267;SDS011;49397;47.474;9.416;2022-08-01T07:08:28;3.50;;;3.30;;
11267;SDS011;49397;47.474;9.416;2022-08-01T07:10:53;3.47;;;3.17;;
11267;SDS011;49397;47.474;9.416;2022-08-01T07:13:19;4.37;;;3.37;;
11267;SDS011;49397;47.474;9.416;2022-08-01T07:15:48;3.57;;;3.27;;
11267;SDS011;49397;47.474;9.416;2022-08-01T07:18:13;4.30;;;3.90;;
11267;SDS011;49397;47.474;9.416;2022-08-01T07:20:39;3.67;;;3.20;;
11267;SDS011;49397;47.474;9.416;2022-08-01T07:23:04;3.50;;;3.20;;
11267;SDS011;49397;47.474;9.416;2022-08-01T07:25:30;3.97;;;3.60;;
11267;SDS011;49397;47.474;9.416;2022-08-01T07:27:55;4.00;;;3.70;;
11267;SDS011;49397;47.474;9.416;2022-08-01T07:30:21;3.37;;;3.10;;
11267;SDS011;49397;47.474;9.416;2022-08-01T07:32:46;3.83;;;3.43;;
11267;SDS011;49397;47.474;9.416;2022-08-01T07:35:12;4.20;;;3.80;;
11267;SDS011;49397;47.474;9.416;2022-08-01T07:37:38;5.37;;;4.10;;
11267;SDS011;49397;47.474;9.416;2022-08-01T07:40:04;4.50;;;4.10;;
11267;SDS011;49397;47.474;9.416;2022-08-01T07:42:31;5.07;;;4.37;;
11267;SDS011;49397;47.474;9.416;2022-08-01T07:44:56;4.63;;;4.23;;
11267;SDS011;49397;47.474;9.416;2022-08-01T07:47:25;4.20;;;3.80;;
11267;SDS011;49397;47.474;9.416;2022-08-01T07:49:52;5.83;;;3.90;;
11267;SDS011;49397;47.474;9.416;2022-08-01T07:52:24;4.20;;;3.80;;
11267;SDS011;49397;47.474;9.416;2022-08-01T07:54:50;4.20;;;3.80;;
11267;SDS011;49397;47.474;9.416;2022-08-01T07:57:15;4.70;;;3.80;;
11267;SDS011;49397;47.474;9.416;2022-08-01T07:59:41;4.80;;;3.97;;
11267;SDS011;49397;47.474;9.416;2022-08-01T08:02:06;4.13;;;3.83;;
11267;SDS011;49397;47.474;9.416;2022-08-01T08:04:32;4.30;;;3.80;;
11267;SDS011;49397;47.474;9.416;2022-08-01T08:06:57;4.47;;;4.07;;
11267;SDS011;49397;47.474;9.416;2022-08-01T08:09:23;4.10;;;3.70;;
11267;SDS011;49397;47.474;9.416;2022-08-01T08:11:48;4.20;;;3.80;;
11267;SDS011;49397;47.474;9.416;2022-08-01T08:14:15;4.63;;;4.10;;
11267;SDS011;49397;47.474;9.416;2022-08-01T08:16:42;4.93;;;4.33;;
11267;SDS011;49397;47.474;9.416;2022-08-01T08:19:08;4.33;;;3.93;;
11267;SDS011;49397;47.474;9.416;2022-08-01T08:21:33;4.33;;;4.00;;
11267;SDS011;49397;47.474;9.416;2022-08-01T08:23:59;4.00;;;3.70;;
11267;SDS011;49397;47.474;9.416;2022-08-01T08:26:43;4.37;;;3.63;;
11267;SDS011;49397;47.474;9.416;2022-08-01T08:29:08;3.90;;;3.60;;
11267;SDS011;49397;47.474;9.416;2022-08-01T08:31:34;5.63;;;4.03;;
11267;SDS011;49397;47.474;9.416;2022-08-01T08:33:59;4.10;;;3.80;;
11267;SDS011;49397;47.474;9.416;2022-08-01T08:36:25;4.73;;;3.73;;
11267;SDS011;49397;47.474;9.416;2022-08-01T08:38:50;4.87;;;4.33;;
11267;SDS011;49397;47.474;9.416;2022-08-01T08:41:16;4.40;;;4.07;;
11267;SDS011;49397;47.474;9.416;2022-08-01T08:43:42;4.50;;;4.10;;
11267;SDS011;49397;47.474;9.416;2022-08-01T08:46:07;4.70;;;4.40;;
11267;SDS011;49397;47.474;9.416;2022-08-01T08:48:33;4.50;;;4.10;;
11267;SDS011;49397;47.474;9.416;2022-08-01T08:51:00;4.50;;;3.77;;
11267;SDS011;49397;47.474;9.416;2022-08-01T08:53:26;5.33;;;4.43;;
11267;SDS011;49397;47.474;9.416;2022-08-01T08:55:52;5.13;;;4.23;;
11267;SDS011;49397;47.474;9.416;2022-08-01T08:58:20;5.77;;;4.63;;
11267;SDS011;49397;47.474;9.416;2022-08-01T09:00:47;6.10;;;5.10;;
11267;SDS011;49397;47.474;9.416;2022-08-01T09:03:12;4.73;;;4.33;;
11267;SDS011;49397;47.474;9.416;2022-08-01T09:05:38;6.50;;;4.93;;
11267;SDS011;49397;47.474;9.416;2022-08-01T09:08:07;5.20;;;4.43;;
11267;SDS011;49397;47.474;9.416;2022-08-01T09:10:33;5.87;;;4.93;;
11267;SDS011;49397;47.474;9.416;2022-08-01T09:13:09;5.53;;;5.03;;
11267;SDS011;49397;47.474;9.416;2022-08-01T09:15:46;7.10;;;4.93;;
11267;SDS011;49397;47.474;9.416;2022-08-01T09:18:26;4.70;;;4.30;;
11267;SDS011;49397;47.474;9.416;2022-08-01T09:23:41;4.87;;;4.43;;
11267;SDS011;49397;47.474;9.416;2022-08-01T09:26:15;5.67;;;4.73;;
11267;SDS011;49397;47.474;9.416;2022-08-01T09:28:42;4.60;;;3.90;;
11267;SDS011;49397;47.474;9.416;2022-08-01T09:31:10;4.47;;;4.07;;
11267;SDS011;49397;47.474;9.416;2022-08-01T09:36:20;5.73;;;4.17;;
11267;SDS011;49397;47.474;9.416;2022-08-01T09:38:47;4.97;;;4.53;;
11267;SDS011;49397;47.474;9.416;2022-08-01T09:41:14;5.17;;;4.10;;
11267;SDS011;49397;47.474;9.416;2022-08-01T09:43:39;5.63;;;4.47;;
11267;SDS011;49397;47.474;9.416;2022-08-01T09:46:10;4.43;;;4.03;;
11267;SDS011;49397;47.474;9.416;2022-08-01T09:48:37;4.43;;;3.97;;
11267;SDS011;49397;47.474;9.416;2022-08-01T09:51:05;4.10;;;3.70;;
11267;SDS011;49397;47.474;9.416;2022-08-01T09:53:43;4.27;;;3.97;;
11267;SDS011;49397;47.474;9.416;2022-08-01T09:56:10;5.77;;;4.57;;
11267;SDS011;49397;47.474;9.416;2022-08-01T09:58:49;5.23;;;4.17;;
11267;SDS011;49397;47.474;9.416;2022-08-01T10:01:15;5.20;;;4.70;;
11267;SDS011;49397;47.474;9.416;2022-08-01T10:03:41;4.70;;;4.00;;
11267;SDS011;49397;47.474;9.416;2022-08-01T10:06:22;4.90;;;4.37;;
11267;SDS011;49397;47.474;9.416;2022-08-01T10:08:48;5.83;;;4.20;;
11267;SDS011;49397;47.474;9.416;2022-08-01T10:11:13;4.40;;;4.00;;
11267;SDS011;49397;47.474;9.416;2022-08-01T10:13:40;4.23;;;3.90;;
11267;SDS011;49397;47.474;9.416;2022-08-01T10:16:06;5.27;;;3.87;;
11267;SDS011;49397;47.474;9.416;2022-08-01T10:18:33;5.23;;;4.60;;
11267;SDS011;49397;47.474;9.416;2022-08-01T10:21:00;4.50;;;3.57;;
11267;SDS011;49397;47.474;9.416;2022-08-01T10:23:27;4.30;;;3.80;;
11267;SDS011;49397;47.474;9.416;2022-08-01T10:25:55;4.03;;;3.73;;
11267;SDS011;49397;47.474;9.416;2022-08-01T10:28:23;4.30;;;3.90;;
11267;SDS011;49397;47.474;9.416;2022-08-01T10:30:50;4.17;;;3.80;;
11267;SDS011;49397;47.474;9.416;2022-08-01T10:33:17;4.03;;;3.73;;
11267;SDS011;49397;47.474;9.416;2022-08-01T10:35:45;4.03;;;3.73;;
11267;SDS011;49397;47.474;9.416;2022-08-01T10:38:11;3.50;;;3.20;;
11267;SDS011;49397;47.474;9.416;2022-08-01T10:40:37;4.77;;;3.70;;
11267;SDS011;49397;47.474;9.416;2022-08-01T10:43:04;4.40;;;3.60;;
11267;SDS011;49397;47.474;9.416;2022-08-01T10:45:30;3.77;;;3.37;;
11267;SDS011;49397;47.474;9.416;2022-08-01T10:50:29;5.63;;;4.00;;
11267;SDS011;49397;47.474;9.416;2022-08-01T10:53:12;4.17;;;3.77;;
11267;SDS011;49397;47.474;9.416;2022-08-01T10:55:46;4.60;;;3.90;;
11267;SDS011;49397;47.474;9.416;2022-08-01T10:58:24;4.43;;;3.63;;
11267;SDS011;49397;47.474;9.416;2022-08-01T11:11:57;4.03;;;3.73;;
11267;SDS011;49397;47.474;9.416;2022-08-01T11:14:24;4.22;;;3.85;;
11267;SDS011;49397;47.474;9.416;2022-08-01T11:16:49;4.43;;;4.03;;
11267;SDS011;49397;47.474;9.416;2022-08-01T11:19:15;4.60;;;3.90;;
11267;SDS011;49397;47.474;9.416;2022-08-01T11:27:22;4.43;;;3.97;;
11267;SDS011;49397;47.474;9.416;2022-08-01T11:32:33;6.20;;;3.97;;
11267;SDS011;49397;47.474;9.416;2022-08-01T11:35:11;4.50;;;4.10;;
11267;SDS011;49397;47.474;9.416;2022-08-01T11:37:36;4.20;;;3.80;;
11267;SDS011;49397;47.474;9.416;2022-08-01T11:40:15;4.07;;;3.70;;
11267;SDS011;49397;47.474;9.416;2022-08-01T11:42:44;3.95;;;3.65;;
11267;SDS011;49397;47.474;9.416;2022-08-01T11:45:09;4.70;;;4.22;;
11267;SDS011;49397;47.474;9.416;2022-08-01T11:47:46;6.72;;;4.22;;
11267;SDS011;49397;47.474;9.416;2022-08-01T11:53:01;4.25;;;3.70;;
11267;SDS011;49397;47.474;9.416;2022-08-01T11:55:28;3.90;;;3.53;;
11267;SDS011;49397;47.474;9.416;2022-08-01T11:57:58;6.78;;;3.83;;
11267;SDS011;49397;47.474;9.416;2022-08-01T12:00:31;4.93;;;3.38;;
11267;SDS011;49397;47.474;9.416;2022-08-01T12:02:59;3.53;;;3.30;;
11267;SDS011;49397;47.474;9.416;2022-08-01T12:05:36;5.43;;;3.75;;
11267;SDS011;49397;47.474;9.416;2022-08-01T12:08:02;4.57;;;4.18;;
11267;SDS011;49397;47.474;9.416;2022-08-01T12:10:33;4.25;;;3.85;;
11267;SDS011;49397;47.474;9.416;2022-08-01T12:13:04;4.03;;;3.63;;
11267;SDS011;49397;47.474;9.416;2022-08-01T12:15:32;3.95;;;3.63;;
11267;SDS011;49397;47.474;9.416;2022-08-01T12:18:00;4.55;;;4.15;;
11267;SDS011;49397;47.474;9.416;2022-08-01T12:20:36;5.80;;;3.33;;
11267;SDS011;49397;47.474;9.416;2022-08-01T12:23:10;4.22;;;3.83;;
11267;SDS011;49397;47.474;9.416;2022-08-01T12:25:38;4.07;;;3.55;;
11267;SDS011;49397;47.474;9.416;2022-08-01T12:28:06;6.43;;;3.97;;
11267;SDS011;49397;47.474;9.416;2022-08-01T12:30:34;3.92;;;3.63;;
11267;SDS011;49397;47.474;9.416;2022-08-01T12:33:00;4.85;;;3.53;;
11267;SDS011;49397;47.474;9.416;2022-08-01T12:35:31;5.28;;;3.78;;
11267;SDS011;49397;47.474;9.416;2022-08-01T12:37:58;3.67;;;3.38;;
11267;SDS011;49397;47.474;9.416;2022-08-01T12:40:27;4.07;;;3.75;;
11267;SDS011;49397;47.474;9.416;2022-08-01T12:42:56;4.07;;;3.78;;
11267;SDS011;49397;47.474;9.416;2022-08-01T12:45:28;4.05;;;3.75;;
11267;SDS011;49397;47.474;9.416;2022-08-01T12:48:01;4.45;;;3.53;;
11267;SDS011;49397;47.474;9.416;2022-08-01T12:50:30;4.13;;;3.72;;
11267;SDS011;49397;47.474;9.416;2022-08-01T12:52:57;4.00;;;3.70;;
11267;SDS011;49397;47.474;9.416;2022-08-01T12:55:24;3.97;;;3.58;;
11267;SDS011;49397;47.474;9.416;2022-08-01T12:58:02;4.07;;;3.75;;
11267;SDS011;49397;47.474;9.416;2022-08-01T13:00:35;6.63;;;3.90;;
11267;SDS011;49397;47.474;9.416;2022-08-01T13:03:03;3.78;;;3.47;;
11267;SDS011;49397;47.474;9.416;2022-08-01T13:08:23;4.18;;;3.75;;
11267;SDS011;49397;47.474;9.416;2022-08-01T13:11:06;4.00;;;3.60;;
11267;SDS011;49397;47.474;9.416;2022-08-01T13:13:42;3.63;;;3.35;;
11267;SDS011;49397;47.474;9.416;2022-08-01T13:16:21;4.35;;;3.80;;
11267;SDS011;49397;47.474;9.416;2022-08-01T13:18:52;3.22;;;3.03;;
11267;SDS011;49397;47.474;9.416;2022-08-01T13:21:21;2.95;;;2.75;;
11267;SDS011;49397;47.474;9.416;2022-08-01T13:24:01;3.88;;;3.45;;
11267;SDS011;49397;47.474;9.416;2022-08-01T13:26:47;4.28;;;2.92;;
11267;SDS011;49397;47.474;9.416;2022-08-01T13:29:17;3.65;;;3.35;;
11267;SDS011;49397;47.474;9.416;2022-08-01T13:31:45;3.58;;;3.10;;
11267;SDS011;49397;47.474;9.416;2022-08-01T13:34:11;3.33;;;3.00;;
11267;SDS011;49397;47.474;9.416;2022-08-01T13:36:37;3.35;;;3.05;;
11267;SDS011;49397;47.474;9.416;2022-08-01T13:39:03;4.43;;;3.20;;
11267;SDS011;49397;47.474;9.416;2022-08-01T13:41:48;2.67;;;2.58;;
11267;SDS011;49397;47.474;9.416;2022-08-01T13:44:14;2.85;;;2.70;;
11267;SDS011;49397;47.474;9.416;2022-08-01T13:46:40;4.28;;;3.10;;
11267;SDS011;49397;47.474;9.416;2022-08-01T13:49:07;3.50;;;3.20;;
11267;SDS011;49397;47.474;9.416;2022-08-01T13:51:34;2.95;;;2.75;;
11267;SDS011;49397;47.474;9.416;2022-08-01T13:54:00;3.50;;;3.20;;
11267;SDS011;49397;47.474;9.416;2022-08-01T13:56:25;3.15;;;2.95;;
11267;SDS011;49397;47.474;9.416;2022-08-01T13:58:55;3.33;;;3.03;;
11267;SDS011;49397;47.474;9.416;2022-08-01T14:01:21;3.28;;;3.08;;
11267;SDS011;49397;47.474;9.416;2022-08-01T14:03:47;3.28;;;2.97;;
11267;SDS011;49397;47.474;9.416;2022-08-01T14:06:12;4.60;;;3.03;;
11267;SDS011;49397;47.474;9.416;2022-08-01T14:08:40;3.53;;;3.03;;
11267;SDS011;49397;47.474;9.416;2022-08-01T14:11:06;3.75;;;3.38;;
11267;SDS011;49397;47.474;9.416;2022-08-01T14:13:32;2.97;;;2.70;;
11267;SDS011;49397;47.474;9.416;2022-08-01T14:15:58;4.05;;;2.90;;
11267;SDS011;49397;47.474;9.416;2022-08-01T14:18:24;3.97;;;2.95;;
11267;SDS011;49397;47.474;9.416;2022-08-01T14:20:50;3.03;;;2.83;;
11267;SDS011;49397;47.474;9.416;2022-08-01T14:23:16;2.67;;;2.58;;
11267;SDS011;49397;47.474;9.416;2022-08-01T14:25:42;3.35;;;3.05;;
11267;SDS011;49397;47.474;9.416;2022-08-01T14:28:08;3.22;;;2.92;;
11267;SDS011;49397;47.474;9.416;2022-08-01T14:30:33;3.40;;;3.10;;
11267;SDS011;49397;47.474;9.416;2022-08-01T14:32:59;3.33;;;3.05;;
11267;SDS011;49397;47.474;9.416;2022-08-01T14:35:25;3.85;;;3.13;;
11267;SDS011;49397;47.474;9.416;2022-08-01T14:37:51;3.03;;;2.78;;
11267;SDS011;49397;47.474;9.416;2022-08-01T14:40:16;4.45;;;3.00;;
11267;SDS011;49397;47.474;9.416;2022-08-01T14:42:42;2.50;;;2.30;;
11267;SDS011;49397;47.474;9.416;2022-08-01T14:45:11;2.92;;;1.98;;
11267;SDS011;49397;47.474;9.416;2022-08-01T14:47:38;2.75;;;2.30;;
11267;SDS011;49397;47.474;9.416;2022-08-01T14:50:06;2.40;;;2.30;;
11267;SDS011;49397;47.474;9.416;2022-08-01T14:52:34;2.08;;;1.98;;
11267;SDS011;49397;47.474;9.416;2022-08-01T14:55:02;1.92;;;1.83;;
11267;SDS011;49397;47.474;9.416;2022-08-01T14:57:28;1.98;;;1.80;;
11267;SDS011;49397;47.474;9.416;2022-08-01T14:59:54;2.05;;;1.95;;
11267;SDS011;49397;47.474;9.416;2022-08-01T15:02:19;2.00;;;1.80;;
11267;SDS011;49397;47.474;9.416;2022-08-01T15:04:46;1.90;;;1.80;;
11267;SDS011;49397;47.474;9.416;2022-08-01T15:07:12;2.00;;;1.80;;
11267;SDS011;49397;47.474;9.416;2022-08-01T15:09:38;2.30;;;2.10;;
11267;SDS011;49397;47.474;9.416;2022-08-01T15:12:04;2.40;;;2.30;;
11267;SDS011;49397;47.474;9.416;2022-08-01T15:14:30;2.08;;;1.98;;
11267;SDS011;49397;47.474;9.416;2022-08-01T15:19:44;2.10;;;1.90;;
11267;SDS011;49397;47.474;9.416;2022-08-01T15:22:11;2.00;;;1.90;;
11267;SDS011;49397;47.474;9.416;2022-08-01T15:24:37;1.85;;;1.75;;
11267;SDS011;49397;47.474;9.416;2022-08-01T15:27:03;2.00;;;1.90;;
11267;SDS011;49397;47.474;9.416;2022-08-01T15:29:28;2.10;;;2.00;;
11267;SDS011;49397;47.474;9.416;2022-08-01T15:31:54;2.30;;;1.80;;
11267;SDS011;49397;47.474;9.416;2022-08-01T15:34:20;3.00;;;2.80;;